Time;durP1;ratioP1;P1;durP2;ratioP2;P2;SDS_P1;SDS_P2;PMS_P1;PMS_P2;Temp;Humidity;BMP_temperature;BMP_pressure;BME280_temperature;BME280_humidity;BME280_pressure;Samples;Min_cycle;Max_cycle;Signal;HPM_P1;HPM_P2
2022/04/15 00:01:23;;;;;;;6.47;3.72;;;;;;;;;;4926413;29;20126;-82
2022/04/15 00:03:52;;;;;;;7.30;3.58;;;;;;;;;;4925301;29;20036;-82
2022/04/15 00:06:19;;;;;;;9.40;4.07;;;;;;;;;;4886469;29;20100;-85
2022/04/15 00:08:45;;;;;;;8.70;4.00;;;;;;;;;;4923575;29;20044;-81
2022/04/15 00:11:11;;;;;;;9.43;4.07;;;;;;;;;;4927048;29;20586;-81
2022/04/15 00:13:38;;;;;;;7.72;3.40;;;;;;;;;;4906950;29;20075;-85
2022/04/15 00:16:04;;;;;;;5.45;3.17;;;;;;;;;;4909845;29;20043;-82
2022/04/15 00:18:31;;;;;;;4.70;3.38;;;;;;;;;;4910735;29;20111;-82
2022/04/15 00:20:57;;;;;;;7.88;3.60;;;;;;;;;;4928305;29;20051;-86
2022/04/15 00:23:23;;;;;;;6.68;3.75;;;;;;;;;;4897701;29;20455;-82
2022/04/15 00:25:49;;;;;;;7.57;3.70;;;;;;;;;;4927220;29;20565;-82
2022/04/15 00:28:16;;;;;;;11.93;4.95;;;;;;;;;;4908769;29;20420;-81
2022/04/15 00:30:42;;;;;;;9.68;4.57;;;;;;;;;;4908092;29;20048;-86
2022/04/15 00:33:08;;;;;;;10.15;5.22;;;;;;;;;;4906898;29;20107;-82
2022/04/15 00:35:34;;;;;;;13.52;4.50;;;;;;;;;;4910493;29;20456;-81
2022/04/15 00:38:00;;;;;;;18.52;4.72;;;;;;;;;;4892387;29;20385;-82
2022/04/15 00:40:26;;;;;;;13.88;5.28;;;;;;;;;;4909273;29;20048;-81
2022/04/15 00:42:52;;;;;;;11.80;5.35;;;;;;;;;;4903857;29;20039;-83
2022/04/15 00:45:18;;;;;;;14.45;5.43;;;;;;;;;;4926567;29;20048;-82
2022/04/15 00:47:51;;;;;;;17.38;6.18;;;;;;;;;;4907686;29;20036;-83
2022/04/15 00:50:21;;;;;;;18.92;5.90;;;;;;;;;;4908977;29;20427;-85
2022/04/15 00:52:48;;;;;;;19.08;6.40;;;;;;;;;;4886868;29;20055;-84
2022/04/15 00:55:15;;;;;;;24.00;7.15;;;;;;;;;;4926885;29;20106;-83
2022/04/15 00:57:42;;;;;;;24.05;6.78;;;;;;;;;;4927791;29;20054;-84
2022/04/15 01:00:09;;;;;;;14.43;5.07;;;;;;;;;;4926053;29;20094;-86
2022/04/15 01:02:35;;;;;;;17.08;5.88;;;;;;;;;;4907167;29;20032;-83
2022/04/15 01:05:05;;;;;;;23.80;6.45;;;;;;;;;;4905238;29;20082;-85
2022/04/15 01:07:35;;;;;;;14.77;6.20;;;;;;;;;;4925987;29;20043;-85
2022/04/15 01:10:03;;;;;;;19.15;7.13;;;;;;;;;;4925252;29;20152;-85
2022/04/15 01:12:30;;;;;;;20.98;6.65;;;;;;;;;;4906691;29;20082;-83
2022/04/15 01:14:59;;;;;;;19.55;6.95;;;;;;;;;;4926459;29;20028;-82
2022/04/15 01:17:26;;;;;;;20.40;6.72;;;;;;;;;;4891374;29;20532;-84
2022/04/15 01:19:52;;;;;;;16.05;7.00;;;;;;;;;;4906153;29;20451;-86
2022/04/15 01:22:23;;;;;;;18.17;7.78;;;;;;;;;;4891715;29;20044;-87
2022/04/15 01:24:55;;;;;;;22.70;7.75;;;;;;;;;;4905620;29;20095;-83
2022/04/15 01:27:34;;;;;;;24.70;8.80;;;;;;;;;;4907100;29;20044;-87
2022/04/15 01:30:00;;;;;;;22.42;8.38;;;;;;;;;;4905823;29;20130;-86
2022/04/15 01:32:26;;;;;;;23.73;8.50;;;;;;;;;;4908169;29;20512;-86
2022/04/15 01:34:52;;;;;;;24.10;8.43;;;;;;;;;;4924454;29;20058;-83
2022/04/15 01:37:20;;;;;;;20.73;8.90;;;;;;;;;;4906022;29;20043;-86
2022/04/15 01:39:47;;;;;;;29.80;9.13;;;;;;;;;;4921489;29;20040;-86
2022/04/15 01:42:14;;;;;;;22.40;8.27;;;;;;;;;;4888615;29;20043;-83
2022/04/15 01:44:40;;;;;;;20.52;9.23;;;;;;;;;;4923350;29;20127;-85
2022/04/15 01:47:06;;;;;;;20.77;8.80;;;;;;;;;;4906799;29;20050;-84
2022/04/15 01:49:32;;;;;;;24.55;10.02;;;;;;;;;;4923200;29;20493;-86
2022/04/15 01:51:58;;;;;;;13.80;8.73;;;;;;;;;;4921858;29;20523;-82
2022/04/15 01:54:27;;;;;;;15.48;9.48;;;;;;;;;;4923853;29;20403;-83
2022/04/15 01:56:54;;;;;;;12.18;8.60;;;;;;;;;;4890927;29;20043;-83
2022/04/15 01:59:20;;;;;;;12.70;8.30;;;;;;;;;;4906754;29;20047;-82
2022/04/15 02:01:46;;;;;;;13.30;7.43;;;;;;;;;;4887062;29;20035;-85
2022/04/15 02:04:12;;;;;;;14.82;7.85;;;;;;;;;;4922614;29;20047;-83
2022/04/15 02:06:38;;;;;;;14.02;7.85;;;;;;;;;;4923628;29;21680;-83
2022/04/15 02:09:04;;;;;;;13.50;8.13;;;;;;;;;;4903084;29;20339;-83
2022/04/15 02:11:30;;;;;;;12.35;8.95;;;;;;;;;;4908053;29;20044;-83
2022/04/15 02:13:56;;;;;;;11.38;7.90;;;;;;;;;;4921649;29;20059;-85
2022/04/15 02:16:22;;;;;;;10.80;7.18;;;;;;;;;;4906904;29;20051;-85
2022/04/15 02:18:48;;;;;;;9.55;7.63;;;;;;;;;;4924022;29;20126;-84
2022/04/15 02:21:14;;;;;;;9.80;7.30;;;;;;;;;;4922957;29;20051;-84
2022/04/15 02:23:40;;;;;;;14.73;7.75;;;;;;;;;;4905864;29;20047;-87
2022/04/15 02:26:06;;;;;;;15.07;8.60;;;;;;;;;;4905205;29;20048;-85
2022/04/15 02:28:32;;;;;;;14.90;7.85;;;;;;;;;;4907313;29;20148;-86
2022/04/15 02:30:58;;;;;;;8.98;6.82;;;;;;;;;;4920986;29;20071;-85
2022/04/15 02:33:24;;;;;;;8.27;6.55;;;;;;;;;;4891327;29;20047;-85
2022/04/15 02:35:50;;;;;;;7.75;6.47;;;;;;;;;;4904966;29;20060;-86
2022/04/15 02:38:17;;;;;;;9.32;6.07;;;;;;;;;;4922045;29;20051;-85
2022/04/15 02:40:43;;;;;;;8.73;6.07;;;;;;;;;;4924999;29;20086;-86
2022/04/15 02:43:09;;;;;;;10.85;6.70;;;;;;;;;;4922999;29;20556;-82
2022/04/15 02:45:36;;;;;;;6.47;5.55;;;;;;;;;;4907792;29;20055;-86
2022/04/15 02:48:02;;;;;;;8.52;5.15;;;;;;;;;;4904520;29;20047;-85
2022/04/15 02:50:28;;;;;;;6.78;5.35;;;;;;;;;;4906993;29;20198;-85
2022/04/15 02:52:54;;;;;;;7.40;5.80;;;;;;;;;;4904885;29;20732;-85
2022/04/15 02:55:20;;;;;;;5.93;5.18;;;;;;;;;;4890331;29;20039;-83
2022/04/15 02:57:47;;;;;;;7.43;4.60;;;;;;;;;;4906141;29;20393;-85
2022/04/15 03:00:14;;;;;;;8.05;5.20;;;;;;;;;;4905078;29;20040;-84
2022/04/15 03:02:40;;;;;;;8.48;5.57;;;;;;;;;;4906548;29;20051;-82
2022/04/15 03:05:09;;;;;;;9.55;5.32;;;;;;;;;;4904645;29;20048;-84
2022/04/15 03:07:35;;;;;;;7.70;5.53;;;;;;;;;;4907504;29;20047;-82
2022/04/15 03:10:01;;;;;;;6.28;5.55;;;;;;;;;;4890130;29;20052;-84
2022/04/15 03:12:27;;;;;;;5.43;4.75;;;;;;;;;;4906738;29;20063;-82
2022/04/15 03:14:53;;;;;;;4.38;3.78;;;;;;;;;;4922857;29;20483;-86
2022/04/15 03:17:19;;;;;;;5.00;4.00;;;;;;;;;;4924484;29;20095;-82
2022/04/15 03:19:46;;;;;;;7.93;4.22;;;;;;;;;;4907160;29;20130;-87
2022/04/15 03:22:12;;;;;;;4.75;4.07;;;;;;;;;;4905123;29;20511;-84
2022/04/15 03:24:38;;;;;;;5.53;4.32;;;;;;;;;;4889965;29;20040;-85
2022/04/15 03:27:04;;;;;;;4.63;3.33;;;;;;;;;;4904140;29;20047;-84
2022/04/15 03:29:30;;;;;;;4.95;3.25;;;;;;;;;;4907243;29;20079;-86
2022/04/15 03:31:56;;;;;;;6.82;3.70;;;;;;;;;;4920462;29;21607;-82
2022/04/15 03:34:22;;;;;;;4.22;3.83;;;;;;;;;;4923914;29;20107;-85
2022/04/15 03:36:48;;;;;;;5.30;4.53;;;;;;;;;;4905856;29;20036;-82
2022/04/15 03:39:14;;;;;;;5.20;3.63;;;;;;;;;;4905997;29;20043;-82
2022/04/15 03:41:40;;;;;;;7.22;3.20;;;;;;;;;;4903080;29;20079;-82
2022/04/15 03:44:06;;;;;;;8.00;4.10;;;;;;;;;;4921546;29;20047;-82
2022/04/15 03:46:34;;;;;;;5.70;3.90;;;;;;;;;;4907184;29;20504;-85
2022/04/15 03:49:00;;;;;;;7.78;5.65;;;;;;;;;;4902081;29;20047;-85
2022/04/15 03:51:26;;;;;;;4.47;3.70;;;;;;;;;;4906406;29;20388;-83
2022/04/15 03:53:52;;;;;;;8.18;4.88;;;;;;;;;;4905580;29;20054;-87
2022/04/15 03:56:18;;;;;;;8.50;4.90;;;;;;;;;;4902484;29;20058;-81
2022/04/15 03:58:44;;;;;;;7.10;4.30;;;;;;;;;;4905936;29;20089;-87
2022/04/15 04:01:10;;;;;;;9.10;3.63;;;;;;;;;;4903813;29;20059;-86
2022/04/15 04:03:36;;;;;;;8.40;4.45;;;;;;;;;;4882666;29;20135;-86
2022/04/15 04:06:02;;;;;;;5.88;4.95;;;;;;;;;;4886277;29;20048;-83
2022/04/15 04:08:28;;;;;;;10.07;5.82;;;;;;;;;;4882837;29;20044;-82
2022/04/15 04:10:55;;;;;;;7.93;5.43;;;;;;;;;;4902855;29;20056;-83
2022/04/15 04:13:22;;;;;;;11.27;6.13;;;;;;;;;;4922305;29;20098;-85
2022/04/15 04:15:49;;;;;;;8.02;4.97;;;;;;;;;;4905412;29;20107;-82
2022/04/15 04:18:17;;;;;;;6.60;3.53;;;;;;;;;;4925743;29;20032;-85
2022/04/15 04:20:44;;;;;;;6.03;3.60;;;;;;;;;;4926478;29;20043;-87
2022/04/15 04:23:10;;;;;;;8.57;4.00;;;;;;;;;;4923158;29;20500;-87
2022/04/15 04:25:36;;;;;;;9.80;4.38;;;;;;;;;;4885538;29;20036;-84
2022/04/15 04:28:02;;;;;;;10.35;5.35;;;;;;;;;;4907438;29;20143;-83
2022/04/15 04:30:28;;;;;;;8.23;5.68;;;;;;;;;;4925394;29;20038;-80
2022/04/15 04:32:54;;;;;;;10.23;6.22;;;;;;;;;;4906859;29;20068;-81
2022/04/15 04:35:21;;;;;;;10.00;6.80;;;;;;;;;;4893108;29;20048;-82
2022/04/15 04:37:47;;;;;;;8.98;7.05;;;;;;;;;;4907912;29;20505;-82
2022/04/15 04:40:14;;;;;;;13.48;7.55;;;;;;;;;;4906487;29;20436;-82
2022/04/15 04:42:40;;;;;;;9.57;7.45;;;;;;;;;;4906799;29;20040;-83
2022/04/15 04:45:07;;;;;;;11.60;7.75;;;;;;;;;;4906836;29;20909;-82
2022/04/15 04:47:33;;;;;;;13.63;9.60;;;;;;;;;;4907664;29;20795;-81
2022/04/15 04:50:01;;;;;;;13.90;11.20;;;;;;;;;;4924835;29;20043;-84
2022/04/15 04:52:27;;;;;;;14.45;10.85;;;;;;;;;;4907677;29;20048;-82
2022/04/15 04:54:53;;;;;;;16.48;11.88;;;;;;;;;;4926500;29;20044;-85
2022/04/15 04:57:19;;;;;;;19.17;12.32;;;;;;;;;;4906564;29;20539;-81
2022/04/15 04:59:45;;;;;;;21.02;12.70;;;;;;;;;;4910641;29;20504;-82
2022/04/15 05:02:12;;;;;;;20.10;13.10;;;;;;;;;;4883028;29;20032;-84
2022/04/15 05:04:40;;;;;;;20.63;12.82;;;;;;;;;;4925471;29;20405;-82
2022/04/15 05:07:06;;;;;;;23.80;12.52;;;;;;;;;;4907060;29;20043;-81
2022/04/15 05:09:32;;;;;;;22.00;11.05;;;;;;;;;;4907585;29;20051;-82
2022/04/15 05:11:58;;;;;;;21.13;12.52;;;;;;;;;;4908061;29;20048;-84
2022/04/15 05:14:24;;;;;;;18.77;12.50;;;;;;;;;;4906104;29;20094;-83
2022/04/15 05:16:50;;;;;;;19.75;11.23;;;;;;;;;;4910133;29;20047;-86
2022/04/15 05:19:16;;;;;;;22.52;12.07;;;;;;;;;;4906603;29;20446;-82
2022/04/15 05:21:42;;;;;;;17.83;11.40;;;;;;;;;;4924519;29;20563;-83
2022/04/15 05:24:09;;;;;;;16.92;12.25;;;;;;;;;;4927167;29;20122;-83
2022/04/15 05:26:36;;;;;;;22.00;13.82;;;;;;;;;;4886991;29;20119;-81
2022/04/15 05:29:02;;;;;;;20.83;13.25;;;;;;;;;;4921411;29;20040;-81
2022/04/15 05:31:28;;;;;;;23.20;14.57;;;;;;;;;;4905622;29;20082;-81
2022/04/15 05:33:54;;;;;;;19.23;13.65;;;;;;;;;;4923919;29;20099;-81
2022/04/15 05:36:20;;;;;;;21.13;12.82;;;;;;;;;;4905871;29;20091;-81
2022/04/15 05:38:46;;;;;;;24.55;13.25;;;;;;;;;;4884550;29;20046;-83
2022/04/15 05:41:12;;;;;;;22.67;13.07;;;;;;;;;;4905182;29;20056;-81
2022/04/15 05:43:38;;;;;;;18.52;12.25;;;;;;;;;;4906847;29;20043;-82
2022/04/15 05:46:05;;;;;;;24.73;12.88;;;;;;;;;;4920657;29;20066;-84
2022/04/15 05:48:31;;;;;;;25.95;13.43;;;;;;;;;;4908452;29;20051;-81
2022/04/15 05:50:58;;;;;;;21.92;13.13;;;;;;;;;;4891489;29;20052;-83
2022/04/15 05:53:24;;;;;;;24.30;12.55;;;;;;;;;;4922828;29;20621;-83
2022/04/15 05:55:50;;;;;;;18.27;11.85;;;;;;;;;;4910825;29;20518;-83
2022/04/15 05:58:16;;;;;;;27.92;11.02;;;;;;;;;;4908435;29;20044;-86
2022/04/15 06:00:42;;;;;;;19.85;10.73;;;;;;;;;;4911766;29;20043;-81
2022/04/15 06:03:08;;;;;;;18.15;9.75;;;;;;;;;;4910214;29;20053;-81
2022/04/15 06:05:34;;;;;;;13.90;8.70;;;;;;;;;;4911930;29;20138;-83
2022/04/15 06:08:00;;;;;;;18.73;8.77;;;;;;;;;;4927148;29;20567;-85
2022/04/15 06:10:26;;;;;;;17.23;8.10;;;;;;;;;;4928760;29;20516;-86
2022/04/15 06:13:06;;;;;;;15.63;9.50;;;;;;;;;;4895917;29;20087;-84
2022/04/15 06:15:32;;;;;;;16.73;7.80;;;;;;;;;;4927193;29;20048;-86
2022/04/15 06:18:01;;;;;;;13.75;7.70;;;;;;;;;;4911703;29;20412;-85
2022/04/15 06:20:28;;;;;;;17.45;7.30;;;;;;;;;;4909897;29;20048;-83
2022/04/15 06:22:54;;;;;;;14.15;7.05;;;;;;;;;;4924893;29;20389;-85
2022/04/15 06:25:21;;;;;;;13.25;7.78;;;;;;;;;;4922490;29;20082;-84
2022/04/15 06:27:52;;;;;;;16.85;7.95;;;;;;;;;;4910543;29;20048;-83
2022/04/15 06:30:21;;;;;;;17.02;7.43;;;;;;;;;;4928652;29;20059;-86
2022/04/15 06:32:47;;;;;;;15.52;7.60;;;;;;;;;;4907058;29;20062;-85
2022/04/15 06:35:13;;;;;;;14.68;7.07;;;;;;;;;;4906460;29;20047;-88
2022/04/15 06:37:39;;;;;;;18.58;7.55;;;;;;;;;;4903427;29;20498;-83
2022/04/15 06:40:06;;;;;;;15.98;6.72;;;;;;;;;;4904892;29;20051;-85
2022/04/15 06:42:32;;;;;;;19.42;7.53;;;;;;;;;;4884621;29;20173;-84
2022/04/15 06:44:59;;;;;;;11.85;6.97;;;;;;;;;;4905907;29;20134;-83
2022/04/15 06:47:25;;;;;;;13.50;7.07;;;;;;;;;;4923078;29;20058;-83
2022/04/15 06:49:51;;;;;;;16.27;7.40;;;;;;;;;;4903278;29;20029;-82
2022/04/15 06:52:18;;;;;;;15.02;7.82;;;;;;;;;;4922865;29;20099;-85
2022/04/15 06:54:47;;;;;;;14.15;6.78;;;;;;;;;;4922221;29;20042;-87
2022/04/15 06:57:14;;;;;;;11.90;6.60;;;;;;;;;;4897420;29;20911;-83
2022/04/15 06:59:40;;;;;;;16.77;7.07;;;;;;;;;;4921730;29;20142;-87
2022/04/15 07:02:06;;;;;;;13.07;7.05;;;;;;;;;;4921255;29;20035;-85
2022/04/15 07:04:32;;;;;;;15.75;6.97;;;;;;;;;;4906716;29;20130;-83
2022/04/15 07:06:58;;;;;;;14.23;5.75;;;;;;;;;;4894775;29;20036;-84
2022/04/15 07:09:25;;;;;;;12.68;5.50;;;;;;;;;;4880320;29;20052;-81
2022/04/15 07:11:51;;;;;;;17.98;6.43;;;;;;;;;;4912426;29;20050;-83
2022/04/15 07:14:18;;;;;;;11.05;5.45;;;;;;;;;;4928550;29;20122;-85
2022/04/15 07:16:44;;;;;;;17.17;7.38;;;;;;;;;;4926691;29;20126;-84
2022/04/15 07:19:10;;;;;;;7.70;5.35;;;;;;;;;;4895557;29;20043;-85
2022/04/15 07:21:37;;;;;;;17.90;9.75;;;;;;;;;;4924811;29;20465;-83
2022/04/15 07:24:03;;;;;;;23.92;12.70;;;;;;;;;;4928069;29;20058;-83
2022/04/15 07:26:29;;;;;;;20.58;11.48;;;;;;;;;;4925895;29;20043;-86
2022/04/15 07:28:56;;;;;;;19.33;11.23;;;;;;;;;;4907718;29;20052;-86
2022/04/15 07:31:22;;;;;;;28.65;17.25;;;;;;;;;;4908592;29;20048;-83
2022/04/15 07:33:49;;;;;;;11.73;6.30;;;;;;;;;;4923870;29;20043;-83
2022/04/15 07:39:00;;;;;;;13.93;6.05;;;;;;;;;;4924667;29;20488;-86
2022/04/15 07:41:26;;;;;;;14.75;5.47;;;;;;;;;;4914591;29;20040;-89
2022/04/15 07:43:52;;;;;;;12.20;5.55;;;;;;;;;;4897202;29;20036;-86
2022/04/15 07:46:19;;;;;;;9.77;5.45;;;;;;;;;;4930628;29;20552;-85
2022/04/15 07:48:45;;;;;;;13.77;5.47;;;;;;;;;;4929109;29;20044;-89
2022/04/15 07:51:11;;;;;;;14.20;6.35;;;;;;;;;;4928667;29;20040;-92
2022/04/15 07:53:37;;;;;;;12.55;5.60;;;;;;;;;;4898555;29;20075;-85
2022/04/15 07:56:03;;;;;;;15.15;5.68;;;;;;;;;;4897582;29;20052;-88
2022/04/15 07:58:30;;;;;;;13.07;5.70;;;;;;;;;;4906847;29;20048;-90
2022/04/15 08:00:59;;;;;;;12.50;5.22;;;;;;;;;;4940077;29;20051;-94
2022/04/15 08:03:26;;;;;;;14.05;5.82;;;;;;;;;;4929593;29;20105;-91
2022/04/15 08:05:53;;;;;;;19.50;5.45;;;;;;;;;;4905106;29;20119;-91
2022/04/15 08:08:19;;;;;;;12.10;5.68;;;;;;;;;;4924325;29;20051;-88
2022/04/15 08:10:47;;;;;;;9.98;5.32;;;;;;;;;;4923544;29;20090;-91
2022/04/15 08:13:13;;;;;;;12.93;6.40;;;;;;;;;;4931923;29;20040;-92
2022/04/15 08:15:39;;;;;;;9.48;5.10;;;;;;;;;;4912307;29;20039;-85
2022/04/15 08:18:05;;;;;;;9.98;5.32;;;;;;;;;;4927881;29;20515;-85
2022/04/15 08:20:31;;;;;;;12.30;5.68;;;;;;;;;;4929652;29;20070;-85
2022/04/15 08:22:57;;;;;;;10.68;5.40;;;;;;;;;;4933408;29;20064;-85
2022/04/15 08:25:23;;;;;;;10.95;5.22;;;;;;;;;;4918485;29;20062;-85
2022/04/15 08:27:49;;;;;;;9.35;5.82;;;;;;;;;;4914119;29;20083;-86
2022/04/15 08:30:16;;;;;;;11.70;6.03;;;;;;;;;;4931262;29;20518;-86
2022/04/15 08:32:42;;;;;;;10.63;4.97;;;;;;;;;;4929892;29;20060;-89
2022/04/15 08:35:11;;;;;;;13.75;5.82;;;;;;;;;;4929467;29;22057;-86
2022/04/15 08:37:38;;;;;;;15.18;6.25;;;;;;;;;;4928723;29;20043;-85
2022/04/15 08:40:04;;;;;;;13.15;5.90;;;;;;;;;;4909371;29;20056;-85
2022/04/15 08:42:31;;;;;;;11.27;5.32;;;;;;;;;;4912466;29;20043;-86
2022/04/15 08:44:57;;;;;;;11.32;5.60;;;;;;;;;;4896406;29;20036;-86
2022/04/15 08:47:24;;;;;;;13.23;5.68;;;;;;;;;;4931557;29;20052;-87
2022/04/15 08:49:50;;;;;;;10.38;5.93;;;;;;;;;;4930847;29;20419;-85
2022/04/15 08:52:18;;;;;;;12.13;5.85;;;;;;;;;;4943439;29;20106;-88
2022/04/15 08:54:44;;;;;;;10.63;5.43;;;;;;;;;;4926000;29;20046;-87
2022/04/15 08:57:11;;;;;;;12.75;5.40;;;;;;;;;;4925843;29;20230;-87
2022/04/15 08:59:40;;;;;;;10.05;5.95;;;;;;;;;;4922536;29;20510;-88
2022/04/15 09:02:06;;;;;;;11.93;5.80;;;;;;;;;;4935619;29;20487;-85
2022/04/15 09:04:35;;;;;;;10.23;5.80;;;;;;;;;;4904154;29;20083;-90
2022/04/15 09:07:02;;;;;;;10.57;6.03;;;;;;;;;;4912492;29;20067;-87
2022/04/15 09:09:29;;;;;;;9.27;5.57;;;;;;;;;;4935988;29;20056;-86
2022/04/15 09:11:59;;;;;;;12.25;6.03;;;;;;;;;;4929407;29;20544;-88
2022/04/15 09:14:25;;;;;;;12.32;5.65;;;;;;;;;;4911861;29;20151;-88
2022/04/15 09:16:51;;;;;;;14.18;5.68;;;;;;;;;;4926488;29;20052;-87
2022/04/15 09:19:18;;;;;;;13.30;5.93;;;;;;;;;;4898295;29;20056;-91
2022/04/15 09:21:50;;;;;;;11.23;5.45;;;;;;;;;;4928782;29;20135;-87
2022/04/15 09:24:17;;;;;;;13.88;5.82;;;;;;;;;;4929095;29;20048;-87
2022/04/15 09:26:48;;;;;;;13.05;5.68;;;;;;;;;;4913213;29;20055;-86
2022/04/15 09:29:14;;;;;;;11.05;5.90;;;;;;;;;;4929072;29;20111;-84
2022/04/15 09:31:40;;;;;;;13.05;5.72;;;;;;;;;;4912473;29;20066;-86
2022/04/15 09:34:07;;;;;;;8.52;5.00;;;;;;;;;;4915357;29;20063;-86
2022/04/15 09:36:37;;;;;;;11.30;6.60;;;;;;;;;;4911577;29;20213;-87
2022/04/15 09:39:11;;;;;;;9.40;5.05;;;;;;;;;;4916709;29;20063;-87
2022/04/15 09:41:38;;;;;;;9.35;4.72;;;;;;;;;;4915496;29;20723;-88
2022/04/15 09:44:04;;;;;;;12.85;5.32;;;;;;;;;;4929048;29;20067;-87
2022/04/15 09:46:31;;;;;;;10.43;5.13;;;;;;;;;;4910589;29;20052;-89
2022/04/15 09:49:01;;;;;;;8.07;4.97;;;;;;;;;;4929764;29;20059;-88
2022/04/15 09:51:28;;;;;;;9.20;4.88;;;;;;;;;;4927922;29;20051;-87
2022/04/15 09:53:57;;;;;;;12.25;5.35;;;;;;;;;;4881514;29;20388;-86
2022/04/15 09:56:24;;;;;;;10.88;5.40;;;;;;;;;;4895662;29;20044;-87
2022/04/15 09:58:54;;;;;;;7.88;5.53;;;;;;;;;;4914651;29;20408;-87
2022/04/15 10:01:22;;;;;;;8.32;5.22;;;;;;;;;;4911926;29;20051;-87
2022/04/15 10:03:50;;;;;;;9.57;5.40;;;;;;;;;;4896290;29;20042;-88
2022/04/15 10:06:54;;;;;;;8.77;5.60;;;;;;;;;;4926127;29;20175;-91
2022/04/15 10:09:30;;;;;;;10.05;5.20;;;;;;;;;;4926441;29;20051;-87
2022/04/15 10:12:26;;;;;;;7.40;5.10;;;;;;;;;;4929083;29;20453;-89
2022/04/15 10:14:53;;;;;;;9.38;4.72;;;;;;;;;;4925608;29;20106;-89
2022/04/15 10:17:22;;;;;;;6.85;4.63;;;;;;;;;;4909796;29;20059;-87
2022/04/15 10:19:49;;;;;;;6.68;4.30;;;;;;;;;;4928536;29;20516;-89
2022/04/15 10:22:15;;;;;;;6.55;4.72;;;;;;;;;;4925142;29;20870;-88
2022/04/15 10:24:42;;;;;;;7.85;4.60;;;;;;;;;;4896221;29;20054;-88
2022/04/15 10:27:08;;;;;;;7.55;4.60;;;;;;;;;;4909248;29;20040;-88
2022/04/15 10:33:20;;;;;;;13.55;5.15;;;;;;;;;;4888075;29;20141;-87
2022/04/15 10:35:58;;;;;;;11.93;5.30;;;;;;;;;;4906602;29;20060;-88
2022/04/15 10:38:27;;;;;;;10.93;5.15;;;;;;;;;;4902058;29;20048;-87
2022/04/15 10:41:15;;;;;;;12.93;5.20;;;;;;;;;;4908079;29;20044;-89
2022/04/15 11:45:54;;;;;;;9.15;5.13;;;;;;;;;;4936723;29;20049;-95
2022/04/15 11:55:28;;;;;;;10.95;5.38;;;;;;;;;;4954559;23;20554;-92
2022/04/15 12:31:35;;;;;;;9.70;4.50;;;;;;;;;;4916124;28;20497;-92
2022/04/15 12:34:02;;;;;;;;;;;10.10;99.90;;;;;;4883246;29;20052;-91
2022/04/15 12:49:44;;;;;;;10.75;5.40;;;;;;;;;;4819455;26;20064;-91
2022/04/15 12:52:30;;;;;;;7.43;5.00;;;;;;;;;;4885413;29;20044;-90
2022/04/15 12:58:57;;;;;;;9.52;4.57;;;10.00;99.90;;;;;;4866263;23;20988;-91
2022/04/15 13:01:58;;;;;;;8.73;4.55;;;;;;;;;;4917839;29;20115;-91
2022/04/15 13:32:12;;;;;;;16.30;5.47;;;10.00;99.90;;;;;;4914490;29;20548;-93
2022/04/15 14:17:40;;;;;;;17.15;6.07;;;;;;;;;;4904342;29;20039;-90
2022/04/15 14:24:34;;;;;;;13.45;6.07;;;;;;;;;;4866621;29;20047;-90
2022/04/15 14:27:41;;;;;;;16.13;5.72;;;;;;;;;;4834703;29;20692;-91
2022/04/15 14:30:33;;;;;;;16.02;6.22;;;;;;;;;;4853536;29;20065;-91
2022/04/15 14:33:41;;;;;;;12.93;5.03;;;;;;;;;;4883656;29;20524;-91
2022/04/15 14:36:07;;;;;;;14.18;5.70;;;;;;;;;;4867561;29;20835;-91
2022/04/15 14:38:49;;;;;;;12.63;5.10;;;;;;;;;;4870766;29;20049;-90
2022/04/15 14:41:27;;;;;;;9.88;5.20;;;;;;;;;;4868028;29;20184;-91
2022/04/15 14:43:59;;;;;;;9.93;5.20;;;;;;;;;;4852310;29;20108;-92
2022/04/15 14:46:44;;;;;;;9.82;4.88;;;;;;;;;;4869385;29;20076;-91
2022/04/15 14:49:28;;;;;;;6.85;4.95;;;;;;;;;;4866227;29;20055;-93
2022/04/15 15:16:47;;;;;;;9.45;5.07;;;;;;;;;;4893508;29;20055;-93
2022/04/15 15:19:38;;;;;;;8.20;4.47;;;;;;;;;;4889125;29;20157;-91
2022/04/15 15:52:36;;;;;;;11.30;6.20;;;;;;;;;;4865706;29;20063;-92
2022/04/15 15:55:02;;;;;;;7.95;5.13;;;;;;;;;;4832814;29;20078;-91
2022/04/15 16:00:44;;;;;;;9.02;5.80;;;;;;;;;;5033788;23;20130;-94
2022/04/15 16:30:42;;;;;;;9.73;6.05;;;;;;;;;;4907534;29;20059;-91
2022/04/15 16:33:08;;;;;;;7.65;5.57;;;;;;;;;;4901220;29;20099;-92
2022/04/15 16:38:10;;;;;;;12.93;6.68;;;;;;;;;;6003248;23;20251;-92
2022/04/15 16:43:32;;;;;;;11.27;7.00;;;;;;;;;;4908277;29;20079;-92
2022/04/15 16:46:42;;;;;;;15.85;7.22;;;;;;;;;;4884538;29;20055;-92
2022/04/15 17:08:27;;;;;;;11.52;7.60;;;;;;;;;;4917343;23;20389;-93
2022/04/15 17:10:53;;;;;;;11.63;8.82;;;;;;;;;;4868377;29;20099;-93
2022/04/15 17:19:26;;;;;;;9.95;7.40;;;;;;;;;;4918815;23;20063;-93
2022/04/15 17:22:13;;;;;;;16.23;9.57;;;;;;;;;;4909408;29;20184;-94
2022/04/15 17:32:55;;;;;;;13.00;8.48;;;;;;;;;;5602685;23;19923;-93
2022/04/15 17:35:50;;;;;;;10.95;7.80;;;;;;;;;;4910481;23;20051;-93
2022/04/15 17:52:36;;;;;;;16.80;8.20;;;;;;;;;;4889215;29;20071;-93
2022/04/15 18:00:16;;;;;;;13.55;9.45;;;;;;;;;;5049981;23;20058;-93
2022/04/15 18:02:58;;;;;;;15.10;9.45;;;;;;;;;;4917206;29;20653;-93
2022/04/15 18:05:31;;;;;;;14.40;9.52;;;;;;;;;;4919330;29;20078;-93
2022/04/15 18:08:00;;;;;;;13.65;9.38;;;;;;;;;;4903710;29;20220;-93
2022/04/15 18:10:52;;;;;;;12.07;10.02;;;;;;;;;;4930497;23;20344;-92
2022/04/15 18:15:57;;;;;;;14.60;9.52;;;;;;;;;;4930067;23;20605;-93
2022/04/15 18:37:38;;;;;;;14.23;9.85;;;;;;;;;;4918499;29;20415;-95
2022/04/15 18:41:04;;;;;;;15.50;10.68;;;9.20;99.90;;;;;;4913702;29;20400;-93
2022/04/15 18:43:30;;;;;;;15.85;10.57;;;;;;;;;;4883109;29;20106;-94
2022/04/15 18:45:56;;;;;;;19.60;14.02;;;;;;;;;;4926432;29;20071;-94
2022/04/15 18:55:04;;;;;;;13.93;9.52;;;;;;;;;;4929772;29;20127;-93
2022/04/15 19:00:31;;;;;;;13.85;9.43;;;;;;;;;;4947622;23;20132;-93
2022/04/15 19:09:29;;;;;;;12.57;9.10;;;;;;;;;;4903966;29;20131;-93
2022/04/15 19:11:58;;;;;;;20.52;10.18;;;;;;;;;;4874032;29;20051;-93
2022/04/15 19:14:40;;;;;;;18.45;11.52;;;;;;;;;;4867131;29;20460;-94
2022/04/15 19:30:11;;;;;;;20.60;10.68;;;;;;;;;;4909600;29;20532;-94
2022/04/15 19:32:37;;;;;;;16.77;10.05;;;;;;;;;;4882047;29;20090;-92
2022/04/15 19:38:13;;;;;;;16.52;10.52;;;;;;;;;;4915197;23;20048;-94
2022/04/15 20:02:28;;;;;;;19.77;12.93;;;;;;;;;;4910244;29;20043;-93
2022/04/15 20:27:49;;;;;;;21.88;14.18;;;;;;;;;;4947639;23;20079;-93
2022/04/15 20:30:16;;;;;;;21.70;14.68;;;;;;;;;;4899619;29;20120;-92
2022/04/15 20:33:10;;;;;;;23.27;14.82;;;;;;;;;;4875970;29;20562;-93
2022/04/15 20:35:55;;;;;;;21.20;15.18;;;;;;;;;;4884197;29;20513;-94
2022/04/15 20:41:44;;;;;;;28.20;16.25;;;;;;;;;;4909378;29;20065;-93
2022/04/15 20:44:10;;;;;;;25.08;15.95;;;;;;;;;;4881007;29;20044;-92
2022/04/15 20:51:58;;;;;;;22.25;15.07;;;;;;;;;;4887736;29;20075;-92
2022/04/15 20:57:37;;;;;;;24.58;16.08;;;;;;;;;;5203954;23;20127;-92
2022/04/15 21:00:12;;;;;;;23.58;16.00;;;;;;;;;;4890913;29;20064;-94
2022/04/15 21:02:39;;;;;;;23.70;15.80;;;;;;;;;;4859963;29;20119;-92
2022/04/15 21:05:18;;;;;;;19.00;14.98;;;;;;;;;;4856210;29;20090;-93
2022/04/15 21:08:06;;;;;;;28.17;17.08;;;;;;;;;;4909146;29;20066;-91
2022/04/15 21:10:36;;;;;;;20.65;16.48;;;;;;;;;;4910367;29;20584;-94
2022/04/15 21:13:21;;;;;;;26.73;16.58;;;;;;;;;;4868306;29;20475;-93
2022/04/15 21:15:47;;;;;;;26.17;15.30;;;;;;;;;;4912673;29;20052;-92
2022/04/15 21:18:13;;;;;;;24.38;16.15;;;;;;;;;;4884142;29;20047;-93
2022/04/15 21:20:39;;;;;;;23.48;16.35;;;;;;;;;;4909246;23;20051;-94
2022/04/15 21:23:06;;;;;;;23.20;15.88;;;;;;;;;;4899694;29;20063;-94
2022/04/15 21:25:32;;;;;;;19.00;14.70;;;;;;;;;;4894076;29;20183;-93
2022/04/15 21:28:01;;;;;;;21.52;15.73;;;;;;;;;;4899135;29;20048;-94
2022/04/15 21:30:28;;;;;;;20.52;14.95;;;;;;;;;;4900212;29;20108;-93
2022/04/15 21:32:56;;;;;;;28.10;15.57;;;;;;;;;;4894620;29;20044;-94
2022/04/15 21:35:29;;;;;;;21.02;14.70;;;;;;;;;;4916692;29;20526;-93
2022/04/15 21:37:56;;;;;;;19.80;15.00;;;;;;;;;;4876989;29;20096;-94
2022/04/15 21:40:22;;;;;;;21.15;13.75;;;;;;;;;;4874834;29;20489;-94
2022/04/15 21:45:16;;;;;;;22.73;14.65;;;;;;;;;;4914036;23;20048;-94
2022/04/15 21:47:46;;;;;;;23.05;14.38;;;;;;;;;;4880130;29;20485;-93
2022/04/15 21:50:12;;;;;;;18.13;13.00;;;;;;;;;;4868312;29;20421;-93
2022/04/15 21:52:40;;;;;;;21.38;13.68;;;;;;;;;;4898929;29;20493;-93
2022/04/15 21:55:12;;;;;;;20.13;13.68;;;;;;;;;;4880877;29;20075;-94
2022/04/15 21:57:38;;;;;;;19.52;13.93;;;;;;;;;;4876797;29;20044;-93
2022/04/15 22:00:10;;;;;;;21.27;13.77;;;;;;;;;;4874895;29;20044;-94
2022/04/15 22:02:45;;;;;;;20.10;14.07;;;;;;;;;;4891790;23;20484;-94
2022/04/15 22:05:11;;;;;;;22.58;14.05;;;;;;;;;;4869944;29;20136;-93
2022/04/15 22:07:37;;;;;;;19.33;13.77;;;;;;;;;;4856393;29;20068;-94
2022/04/15 22:16:46;;;;;;;18.35;13.90;;;;;;;;;;4869997;29;20431;-93
2022/04/15 22:19:13;;;;;;;19.10;14.00;;;;;;;;;;4853820;29;20039;-94
2022/04/15 22:21:39;;;;;;;17.98;12.60;;;;;;;;;;4855236;29;20512;-95
2022/04/15 22:24:05;;;;;;;20.98;14.13;;;;;;;;;;4872257;29;20512;-93